KOXR

Oxnard Airport

Oxnard, California, USA
METAR KOXR 191051Z AUTO 07004KT 10SM CLR 11/04 A3015 RMK AO2 SLP209 T01110044
Observed Flight Rules
Dec-19 @ 10:51 UTC (an hour ago) Visual Flight Rules
Wind Visibility Clouds
70° at 4 knots 10 miles
  • Clear skies
Temperatures Readings
Current 11°C / 52°F
Dewpoint 4°C / 39°F
Humidity 62%
Altimeter 30.15" Hg
Pressure 1020.9 hPa
Elevation 20
METAR KOXR 191051Z AUTO 07004KT 10SM CLR 11/04 A3015 RMK AO2 SLP209 T01110044
Observed Flight Rules
Dec-19 @ 10:51 UTC
(an hour ago)
VFR
Wind Visibility
70° at 4 knots 10 miles
Clouds
  • Clear skies
Temperature Dewpoint
11°C / 52°F 4°C / 39°F
Humidity Altimeter Pressure
62% 30.15" Hg 1020.9 hPa